Hauptseite
METAR-TAF:

METAR-TAF

Flughäfen :

RAF Cranwell

Cranwell, England

Breite: 53-02N, Länge: 000-30W, Höhe: 67 m

Beobachtung

Neuester Wetterbericht von vor 38 Minuten, um 18:50 UTC
Wind 4 kt aus West/Nordwest
Temperatur 16°C
Luftfeuchtigkeit 59%
Luftdruck 1017 hPa
Sichtweite 10 km oder mehr

METAR: EGYD 221850Z AUTO 30004KT 9999 // SCT070/// BKN120/// 16/08 Q1017

Zeit: 20:28 (19:28 UTC)

Prognose

Neuester Wetterbericht von vor 5 Stunden und 45 Minuten, um 13:43 UTC
Gültige Prognose vom 22 um 15 UTC bis 22 um 19 UTC
Wind 12 kt aus Südwest
Sichtweite 10 km oder mehr
keine Wolken unter 1500 m und keine Kumulonimbus oder Gewitterwolken

TAF: EGYD 221343Z 2215/2219 23012KT CAVOK

Wetterbeobachtungen und Prognosen von mehr als 4000 Flughäfen (METAR und TAF Bericht).

Die verfügbaren Stationen werden durch gelbe und rote Markierungen auf der Karte dargestellt.

Führen Sie die Maus auf sie, um den Namen der Station zu sehen.

Darauf klicken, um die Beobachtung von Wetterbeobachtungen und Prognosen zu sehen.

Um die Karte zu ändern : klicken Sie auf den grünen Tasten mit einem schwarzen Kreuz Zum Vergrößern, auf den grünen Button mit einem Gedankenstrich zu verkleinern, oder auf die grünen Pfeile für benachbarte Karten.


METAR-TAF: